createdAt,value
2018-08-10T00:00:38.005Z,64.29
2018-08-10T00:03:07.430Z,63.51
2018-08-10T00:05:36.601Z,64.11
2018-08-10T00:08:05.188Z,63.67
2018-08-10T00:10:33.714Z,64.98
2018-08-10T00:13:02.325Z,65.75
2018-08-10T00:15:30.873Z,66.57
2018-08-10T00:17:59.343Z,65.99
2018-08-10T00:20:27.914Z,66.77
2018-08-10T00:22:56.447Z,66.73
2018-08-10T00:25:24.987Z,66.22
2018-08-10T00:27:53.505Z,66.54
2018-08-10T00:30:22.087Z,67.60
2018-08-10T00:32:51.139Z,67.95
2018-08-10T00:35:19.712Z,67.31
2018-08-10T00:37:48.934Z,66.31
2018-08-10T00:40:21.730Z,66.78
2018-08-10T00:42:50.270Z,66.85
2018-08-10T00:45:20.617Z,68.02
2018-08-10T00:47:49.773Z,67.52
2018-08-10T00:50:19.030Z,67.48
2018-08-10T00:52:48.500Z,67.63
2018-08-10T00:55:18.429Z,66.94
2018-08-10T00:57:47.614Z,66.90
2018-08-10T01:00:22.850Z,66.61
2018-08-10T01:02:52.295Z,66.63
2018-08-10T01:05:20.864Z,67.11
2018-08-10T01:07:49.347Z,67.69
2018-08-10T01:10:19.328Z,67.36
2018-08-10T01:12:47.999Z,67.49
2018-08-10T01:15:17.345Z,66.80
2018-08-10T01:17:46.493Z,67.85
2018-08-10T01:20:20.672Z,67.59
2018-08-10T01:22:54.413Z,67.93
2018-08-10T01:25:24.989Z,68.44
2018-08-10T01:27:56.812Z,69.33
2018-08-10T01:30:26.821Z,69.58
2018-08-10T01:32:55.445Z,69.76
2018-08-10T01:35:24.733Z,68.65
2018-08-10T01:37:53.981Z,68.56
2018-08-10T01:40:22.553Z,68.68
2018-08-10T01:42:51.057Z,69.16
2018-08-10T01:45:19.629Z,69.07
2018-08-10T01:47:48.122Z,68.89
2018-08-10T01:50:16.668Z,69.03
2018-08-10T01:52:45.229Z,69.58
2018-08-10T01:55:13.768Z,68.32
2018-08-10T01:57:42.317Z,68.33
2018-08-10T02:00:11.356Z,68.06
2018-08-10T02:02:39.954Z,68.18
2018-08-10T02:05:11.130Z,68.14
2018-08-10T02:07:40.236Z,67.68
2018-08-10T02:10:12.185Z,67.22
2018-08-10T02:12:41.604Z,67.62
2018-08-10T02:15:12.565Z,67.62
2018-08-10T02:17:41.175Z,66.87
2018-08-10T02:20:12.018Z,67.49
2018-08-10T02:22:40.604Z,67.52
2018-08-10T02:25:10.904Z,69.09
2018-08-10T02:27:39.567Z,68.46
2018-08-10T02:30:10.169Z,68.11
2018-08-10T02:32:39.093Z,70.04
2018-08-10T02:35:07.842Z,71.58
2018-08-10T02:37:36.951Z,71.62
2018-08-10T02:40:07.192Z,73.02
2018-08-10T02:42:35.709Z,73.40
2018-08-10T02:45:04.669Z,74.80
2018-08-10T02:47:33.169Z,75.59
2018-08-10T02:50:01.638Z,75.55
2018-08-10T02:52:30.158Z,75.47
2018-08-10T02:54:58.606Z,76.14
2018-08-10T02:57:27.078Z,76.49
2018-08-10T02:59:55.545Z,76.49
2018-08-10T03:02:24.095Z,75.58
2018-08-10T03:04:52.552Z,74.72
2018-08-10T03:07:21.066Z,74.98
2018-08-10T03:09:49.531Z,73.06
2018-08-10T03:12:18.065Z,73.23
2018-08-10T03:14:46.617Z,73.33
2018-08-10T03:17:15.148Z,73.77
2018-08-10T03:19:43.598Z,72.74
2018-08-10T03:22:12.153Z,72.69
2018-08-10T03:24:40.663Z,73.31
2018-08-10T03:27:09.166Z,71.91
2018-08-10T03:29:37.690Z,71.77
2018-08-10T03:32:06.462Z,71.32
2018-08-10T03:34:34.969Z,72.17
2018-08-10T03:37:03.501Z,73.12
2018-08-10T03:39:31.980Z,74.16
2018-08-10T03:42:00.500Z,74.09
2018-08-10T03:44:28.980Z,74.61
2018-08-10T03:46:57.579Z,75.28
2018-08-10T03:49:26.056Z,75.76
2018-08-10T03:51:54.562Z,75.93
2018-08-10T03:54:23.060Z,76.18
2018-08-10T03:56:51.561Z,77.01
2018-08-10T03:59:20.050Z,75.41
2018-08-10T04:01:48.579Z,76.87
2018-08-10T04:04:17.066Z,76.56
2018-08-10T04:06:45.568Z,77.03
2018-08-10T04:09:14.032Z,77.46
2018-08-10T04:11:43.236Z,77.87
2018-08-10T04:14:11.677Z,78.39
2018-08-10T04:16:40.217Z,79.31
2018-08-10T04:19:08.779Z,78.47
2018-08-10T04:21:37.244Z,79.87
2018-08-10T04:24:05.755Z,79.18
2018-08-10T04:26:34.241Z,79.29
2018-08-10T04:29:02.729Z,79.66
2018-08-10T04:31:31.209Z,79.93
2018-08-10T04:33:59.729Z,79.48
2018-08-10T04:36:28.805Z,80.52
2018-08-10T04:38:57.300Z,80.21
2018-08-10T04:41:25.760Z,80.45
2018-08-10T04:43:54.267Z,80.19
2018-08-10T04:46:22.741Z,79.86
2018-08-10T04:48:51.229Z,80.36
2018-08-10T04:51:19.701Z,79.50
2018-08-10T04:53:48.208Z,79.86
2018-08-10T04:56:16.646Z,80.92
2018-08-10T04:58:45.359Z,80.14
2018-08-10T05:01:13.973Z,80.19
2018-08-10T05:03:42.468Z,80.86
2018-08-10T05:06:11.184Z,81.40
2018-08-10T05:08:39.758Z,81.40
2018-08-10T05:11:08.278Z,81.31
2018-08-10T05:13:36.856Z,79.79
2018-08-10T05:16:05.345Z,80.90
2018-08-10T05:18:33.863Z,80.31
2018-08-10T05:21:02.450Z,80.05
2018-08-10T05:23:31.225Z,80.64
2018-08-10T05:25:59.875Z,81.54
2018-08-10T05:28:28.538Z,81.61
2018-08-10T05:30:57.045Z,81.47
2018-08-10T05:33:25.588Z,82.51
2018-08-10T05:35:54.102Z,81.63
2018-08-10T05:38:22.610Z,81.24
2018-08-10T05:40:51.099Z,81.91
2018-08-10T05:43:19.612Z,81.62
2018-08-10T05:45:48.196Z,81.03
2018-08-10T05:48:16.737Z,80.46
2018-08-10T05:50:45.658Z,81.52
2018-08-10T05:53:14.330Z,81.49
2018-08-10T05:55:42.797Z,81.47
2018-08-10T05:58:11.297Z,81.40
2018-08-10T06:00:39.873Z,81.26
2018-08-10T06:03:08.366Z,81.39
2018-08-10T06:05:36.850Z,81.50
2018-08-10T06:08:05.402Z,82.04
2018-08-10T06:10:33.863Z,83.05
2018-08-10T06:15:54.888Z,81.67
2018-08-10T06:18:23.361Z,81.61
2018-08-10T06:20:51.838Z,82.24
2018-08-10T06:23:20.305Z,81.69
2018-08-10T06:25:48.789Z,81.91
2018-08-10T06:28:17.331Z,82.12
2018-08-10T06:33:38.316Z,81.93
2018-08-10T06:36:06.810Z,82.20
2018-08-10T06:38:35.301Z,82.56
2018-08-10T06:41:03.798Z,81.73
2018-08-10T06:43:32.278Z,81.64
2018-08-10T06:46:00.745Z,80.32
2018-08-10T06:48:29.215Z,80.66
2018-08-10T06:50:57.778Z,79.40
2018-08-10T06:53:26.261Z,79.72
2018-08-10T06:55:54.802Z,79.32
2018-08-10T06:58:23.290Z,78.66
2018-08-10T07:00:51.840Z,78.71
2018-08-10T07:03:20.283Z,78.76
2018-08-10T07:05:48.817Z,76.78
2018-08-10T07:08:17.295Z,76.52
2018-08-10T07:10:45.793Z,75.58
2018-08-10T07:13:14.384Z,76.03
2018-08-10T07:15:42.820Z,75.27
2018-08-10T07:18:11.329Z,74.33
2018-08-10T07:20:39.842Z,74.23
2018-08-10T07:23:08.354Z,73.69
2018-08-10T07:25:36.873Z,72.27
2018-08-10T07:28:05.558Z,71.00
2018-08-10T07:30:36.169Z,69.53
2018-08-10T07:33:04.771Z,69.74
2018-08-10T07:35:33.368Z,65.98
2018-08-10T07:38:01.928Z,57.57
2018-08-10T07:40:30.594Z,58.87
2018-08-10T07:42:59.052Z,58.49
2018-08-10T07:45:27.784Z,59.54
2018-08-10T07:47:56.566Z,58.44
2018-08-10T07:50:25.106Z,58.73
2018-08-10T07:52:53.829Z,59.29
2018-08-10T07:55:22.444Z,60.29
2018-08-10T07:57:51.107Z,60.61
2018-08-10T08:00:20.065Z,60.89
2018-08-10T08:02:48.571Z,60.61
2018-08-10T08:05:17.090Z,59.80
2018-08-10T08:07:45.665Z,59.60
2018-08-10T08:10:14.282Z,60.05
2018-08-10T08:12:43.087Z,59.86
2018-08-10T08:15:11.958Z,60.00
2018-08-10T08:17:40.941Z,59.22
2018-08-10T08:20:10.072Z,59.73
2018-08-10T08:22:38.716Z,60.69
2018-08-10T08:25:07.482Z,60.53
2018-08-10T08:27:36.020Z,61.50
2018-08-10T08:30:06.003Z,61.65
2018-08-10T08:32:34.788Z,61.34
2018-08-10T08:35:03.757Z,61.63
2018-08-10T08:37:32.720Z,61.84
2018-08-10T08:40:10.143Z,62.19
2018-08-10T08:42:38.876Z,61.93
2018-08-10T08:46:11.836Z,62.69
2018-08-10T08:48:44.370Z,63.25
2018-08-10T08:51:22.003Z,63.48
2018-08-10T08:55:00.303Z,63.20
2018-08-10T08:57:29.199Z,63.43
2018-08-10T08:59:57.688Z,64.30
2018-08-10T09:02:26.365Z,65.19
2018-08-10T09:05:00.034Z,64.19
2018-08-10T09:07:29.471Z,66.20
2018-08-10T09:10:00.166Z,64.51
2018-08-10T09:12:28.943Z,63.76
2018-08-10T09:15:01.036Z,64.16
2018-08-10T09:17:29.797Z,66.20
2018-08-10T09:19:58.447Z,67.88
2018-08-10T09:22:27.099Z,68.24
2018-08-10T09:24:55.760Z,70.47
2018-08-10T09:27:24.437Z,71.86
2018-08-10T09:29:58.611Z,71.82
2018-08-10T09:32:27.154Z,74.52
2018-08-10T09:34:55.975Z,75.12
2018-08-10T09:37:24.557Z,76.14
2018-08-10T09:39:53.425Z,77.11
2018-08-10T09:42:22.206Z,76.95
2018-08-10T09:44:50.688Z,76.48
2018-08-10T09:47:19.756Z,76.00
2018-08-10T09:49:50.662Z,77.65
2018-08-10T09:52:19.318Z,79.84
2018-08-10T09:55:23.286Z,78.86
2018-08-10T09:57:53.419Z,79.54
2018-08-10T10:00:27.174Z,79.35
2018-08-10T10:03:01.090Z,80.59
2018-08-10T10:05:29.730Z,81.12
2018-08-10T10:07:58.357Z,80.27
2018-08-10T10:10:27.002Z,80.93
2018-08-10T10:12:56.422Z,80.76
2018-08-10T10:15:25.071Z,80.14
2018-08-10T10:17:53.878Z,80.88
2018-08-10T10:20:22.426Z,79.54
2018-08-10T10:22:51.244Z,81.41
2018-08-10T10:25:19.831Z,80.74
2018-08-10T10:27:48.649Z,81.66
2018-08-10T10:30:17.280Z,80.78
2018-08-10T10:32:48.334Z,81.41
2018-08-10T10:35:16.718Z,81.30
2018-08-10T10:37:45.362Z,80.26
2018-08-10T10:40:14.020Z,80.01
2018-08-10T10:42:43.432Z,80.33
2018-08-10T10:45:14.027Z,78.81
2018-08-10T10:47:43.742Z,79.61
2018-08-10T10:50:13.434Z,79.38
2018-08-10T10:52:42.399Z,78.10
2018-08-10T10:55:11.459Z,79.00
2018-08-10T10:57:40.564Z,78.66
2018-08-10T11:00:11.478Z,79.80
2018-08-10T11:02:40.578Z,79.59
2018-08-10T11:05:09.742Z,80.03
2018-08-10T11:07:38.620Z,78.59
2018-08-10T11:10:08.883Z,79.46
2018-08-10T11:12:37.982Z,77.72
2018-08-10T11:15:07.200Z,79.32
2018-08-10T11:17:36.086Z,77.96
2018-08-10T11:20:05.375Z,79.96
2018-08-10T11:22:33.961Z,79.97
2018-08-10T11:25:02.828Z,79.83
2018-08-10T11:27:31.298Z,79.60
2018-08-10T11:29:59.917Z,77.93
2018-08-10T11:32:28.406Z,79.45
2018-08-10T11:34:56.910Z,79.14
2018-08-10T11:37:25.382Z,79.04
2018-08-10T11:39:53.853Z,79.12
2018-08-10T11:42:22.377Z,79.44
2018-08-10T11:44:50.984Z,80.39
2018-08-10T11:47:19.566Z,79.56
2018-08-10T11:49:48.199Z,78.53
2018-08-10T11:52:16.857Z,78.75
2018-08-10T11:54:45.557Z,75.75
2018-08-10T11:57:14.135Z,75.36
2018-08-10T11:59:42.742Z,75.29
2018-08-10T12:02:11.280Z,74.87
2018-08-10T12:04:39.924Z,74.31
2018-08-10T12:07:08.863Z,73.40
2018-08-10T12:09:37.566Z,74.11
2018-08-10T12:12:06.187Z,74.85
2018-08-10T12:14:34.782Z,73.48
2018-08-10T12:17:03.556Z,74.83
2018-08-10T12:19:32.182Z,76.64
2018-08-10T12:22:00.842Z,75.61
2018-08-10T12:24:29.398Z,75.02
2018-08-10T12:26:57.942Z,74.91
2018-08-10T12:29:26.576Z,75.41
2018-08-10T12:31:55.149Z,75.00
2018-08-10T12:34:23.749Z,72.04
2018-08-10T12:36:52.335Z,70.71
2018-08-10T12:39:20.957Z,72.89
2018-08-10T12:41:49.564Z,73.58
2018-08-10T12:44:18.145Z,72.46
2018-08-10T12:46:46.695Z,72.86
2018-08-10T12:49:15.294Z,74.01
2018-08-10T12:51:43.890Z,73.05
2018-08-10T12:54:12.458Z,72.68
2018-08-10T12:56:41.190Z,72.85
2018-08-10T12:59:10.474Z,72.32
2018-08-10T13:01:39.178Z,73.73
2018-08-10T13:04:07.763Z,72.66
2018-08-10T13:06:40.102Z,72.07
2018-08-10T13:09:11.692Z,73.04
2018-08-10T13:11:40.219Z,71.20
2018-08-10T13:14:09.138Z,70.52
2018-08-10T13:16:37.766Z,71.79
2018-08-10T13:19:06.528Z,70.13
2018-08-10T13:21:35.258Z,68.34
2018-08-10T13:24:04.654Z,68.21
2018-08-10T13:26:33.213Z,69.20
2018-08-10T13:29:01.777Z,67.67
2018-08-10T13:31:30.299Z,69.18
2018-08-10T13:33:58.785Z,70.47
2018-08-10T13:36:27.373Z,70.77
2018-08-10T13:38:55.861Z,71.18
2018-08-10T13:41:24.384Z,72.34
2018-08-10T13:43:52.889Z,69.13
2018-08-10T13:46:21.360Z,68.88
2018-08-10T13:48:49.821Z,67.75
2018-08-10T13:51:18.317Z,67.14
2018-08-10T13:53:46.833Z,68.84
2018-08-10T13:56:15.411Z,69.28
2018-08-10T13:58:43.934Z,69.79
2018-08-10T14:01:12.478Z,66.40
2018-08-10T14:03:41.052Z,65.56
2018-08-10T14:06:10.061Z,63.13
2018-08-10T14:08:38.663Z,62.09
2018-08-10T14:11:07.238Z,62.45
2018-08-10T14:13:35.964Z,63.67
2018-08-10T14:16:04.597Z,65.23
2018-08-10T14:18:33.386Z,62.51
2018-08-10T14:21:01.919Z,64.28
2018-08-10T14:23:31.365Z,60.59
2018-08-10T14:25:59.938Z,57.77
2018-08-10T14:28:28.619Z,55.51
2018-08-10T14:30:57.151Z,56.44
2018-08-10T14:33:25.698Z,56.90
2018-08-10T14:35:54.249Z,55.99
2018-08-10T14:38:22.736Z,56.03
2018-08-10T14:40:51.278Z,54.03
2018-08-10T14:43:19.767Z,50.22
2018-08-10T14:45:48.352Z,49.02
2018-08-10T14:48:16.912Z,46.69
2018-08-10T14:50:45.459Z,45.05
2018-08-10T14:53:14.027Z,44.17
2018-08-10T14:55:42.481Z,45.23
2018-08-10T14:58:11.070Z,44.86
2018-08-10T15:00:39.683Z,41.22
2018-08-10T15:03:08.521Z,41.61
2018-08-10T15:05:37.071Z,40.59
2018-08-10T15:08:05.757Z,36.71
2018-08-10T15:10:34.261Z,34.30
2018-08-10T15:13:02.921Z,32.30
2018-08-10T15:15:31.326Z,32.73
2018-08-10T15:17:59.853Z,32.84
2018-08-10T15:20:28.556Z,30.95
2018-08-10T15:22:57.165Z,30.98
2018-08-10T15:25:25.649Z,32.24
2018-08-10T15:27:54.197Z,31.35
2018-08-10T15:30:22.675Z,28.49
2018-08-10T15:32:51.244Z,27.01
2018-08-10T15:35:19.852Z,29.42
2018-08-10T15:37:48.417Z,31.21
2018-08-10T15:40:18.487Z,34.72
2018-08-10T15:42:47.017Z,35.71
2018-08-10T15:45:16.679Z,35.24
2018-08-10T15:47:45.807Z,37.77
2018-08-10T15:50:14.757Z,37.03
2018-08-10T15:52:44.505Z,37.08
2018-08-10T15:55:13.647Z,35.41
2018-08-10T15:57:42.231Z,35.46
2018-08-10T16:00:17.044Z,36.82
2018-08-10T16:02:45.809Z,38.93
2018-08-10T16:05:14.378Z,39.67
2018-08-10T16:07:44.587Z,39.72
2018-08-10T16:10:13.323Z,40.33
2018-08-10T16:12:41.905Z,40.40
2018-08-10T16:15:12.475Z,40.69
2018-08-10T16:17:41.120Z,43.46
2018-08-10T16:20:11.522Z,42.92
2018-08-10T16:22:40.097Z,39.33
2018-08-10T16:25:10.093Z,41.36
2018-08-10T16:27:38.651Z,46.14
2018-08-10T16:30:09.002Z,46.57
2018-08-10T16:32:37.812Z,48.64
2018-08-10T16:35:07.670Z,49.02
2018-08-10T16:37:36.267Z,50.50
2018-08-10T16:40:06.110Z,53.14
2018-08-10T16:42:34.657Z,53.60
2018-08-10T16:45:03.249Z,55.69
2018-08-10T16:47:31.806Z,57.29
2018-08-10T16:50:00.317Z,59.01
2018-08-10T16:52:28.850Z,59.87
2018-08-10T16:54:57.345Z,61.86
2018-08-10T16:57:25.902Z,61.84
2018-08-10T16:59:57.640Z,63.99
2018-08-10T17:02:26.706Z,64.65
2018-08-10T17:04:55.170Z,66.08
2018-08-10T17:07:23.691Z,64.43
2018-08-10T17:09:52.238Z,64.23
2018-08-10T17:13:49.868Z,64.50
2018-08-10T17:16:18.334Z,65.06
2018-08-10T17:18:46.831Z,64.27
2018-08-10T17:21:15.373Z,65.52
2018-08-10T17:23:43.902Z,64.39
2018-08-10T17:26:12.349Z,63.61
2018-08-10T17:28:40.854Z,63.80
2018-08-10T17:31:09.343Z,64.81
2018-08-10T17:33:37.845Z,65.57
2018-08-10T17:36:06.825Z,65.19
2018-08-10T17:38:35.326Z,65.37
2018-08-10T17:41:03.818Z,65.44
2018-08-10T17:43:32.366Z,66.39
2018-08-10T17:46:00.878Z,66.77
2018-08-10T17:48:29.392Z,65.71
2018-08-10T17:50:57.961Z,65.79
2018-08-10T17:53:26.509Z,65.53
2018-08-10T17:55:54.961Z,66.66
2018-08-10T17:58:23.489Z,66.73
2018-08-10T18:00:51.998Z,66.54
2018-08-10T18:03:20.533Z,67.18
2018-08-10T18:05:49.071Z,68.14
2018-08-10T18:08:17.574Z,68.77
2018-08-10T18:10:46.046Z,68.37
2018-08-10T18:13:14.777Z,67.31
2018-08-10T18:15:43.727Z,68.01
2018-08-10T18:18:12.253Z,68.38
2018-08-10T18:20:40.798Z,68.41
2018-08-10T18:23:09.301Z,67.60
2018-08-10T18:25:37.801Z,67.35
2018-08-10T18:28:06.314Z,67.95
2018-08-10T18:30:34.815Z,68.59
2018-08-10T18:33:03.362Z,68.35
2018-08-10T18:35:31.878Z,69.21
2018-08-10T18:38:00.434Z,68.87
2018-08-10T18:40:29.005Z,69.32
2018-08-10T18:42:57.501Z,69.48
2018-08-10T18:45:26.102Z,69.66
2018-08-10T18:47:54.616Z,69.99
2018-08-10T18:50:23.164Z,70.45
2018-08-10T18:52:51.664Z,70.05
2018-08-10T18:55:21.968Z,70.06
2018-08-10T18:57:51.051Z,69.26
2018-08-10T19:00:23.086Z,69.40
2018-08-10T19:02:51.685Z,68.72
2018-08-10T19:05:20.262Z,69.41
2018-08-10T19:07:49.194Z,69.88
2018-08-10T19:10:22.003Z,69.54
2018-08-10T19:12:50.541Z,70.69
2018-08-10T19:15:19.101Z,70.56
2018-08-10T19:17:47.837Z,71.03
2018-08-10T19:20:16.727Z,70.76
2018-08-10T19:22:45.696Z,71.69
2018-08-10T19:25:14.972Z,72.68
2018-08-10T19:27:43.374Z,72.58
2018-08-10T19:30:15.694Z,71.79
2018-08-10T19:32:45.338Z,72.25
2018-08-10T19:35:13.933Z,72.45
2018-08-10T19:37:42.477Z,72.19
2018-08-10T19:40:12.979Z,71.71
2018-08-10T19:42:41.510Z,71.75
2018-08-10T19:45:11.295Z,72.21
2018-08-10T19:47:40.124Z,73.61
2018-08-10T19:50:10.058Z,74.74
2018-08-10T19:52:38.686Z,74.65
2018-08-10T19:55:09.199Z,74.98
2018-08-10T19:57:37.833Z,75.83
2018-08-10T20:00:07.186Z,76.22
2018-08-10T20:02:35.786Z,77.00
2018-08-10T20:05:05.105Z,77.81
2018-08-10T20:07:33.601Z,78.37
2018-08-10T20:10:02.142Z,78.26
2018-08-10T20:12:30.658Z,78.27
2018-08-10T20:14:59.202Z,78.16
2018-08-10T20:17:27.693Z,78.00
2018-08-10T20:19:56.337Z,78.42
2018-08-10T20:22:25.020Z,78.71
2018-08-10T20:24:53.631Z,78.08
2018-08-10T20:27:22.165Z,78.64
2018-08-10T20:29:50.726Z,78.05
2018-08-10T20:32:19.269Z,78.51
2018-08-10T20:34:47.813Z,78.75
2018-08-10T20:37:16.342Z,79.63
2018-08-10T20:39:44.879Z,79.81
2018-08-10T20:42:13.456Z,80.06
2018-08-10T20:44:41.948Z,80.57
2018-08-10T20:47:10.666Z,81.12
2018-08-10T20:49:39.181Z,82.06
2018-08-10T20:52:07.727Z,82.22
2018-08-10T20:54:36.234Z,82.28
2018-08-10T20:57:04.762Z,81.96
2018-08-10T20:59:33.340Z,81.10
2018-08-10T21:02:01.881Z,81.22
2018-08-10T21:04:30.403Z,81.45
2018-08-10T21:06:58.922Z,81.45
2018-08-10T21:09:27.481Z,81.40
2018-08-10T21:11:56.018Z,81.25
2018-08-10T21:14:24.506Z,80.93
2018-08-10T21:16:53.031Z,81.22
2018-08-10T21:19:21.502Z,80.53
2018-08-10T21:21:50.047Z,80.45
2018-08-10T21:24:18.549Z,80.34
2018-08-10T21:26:47.089Z,80.53
2018-08-10T21:29:15.618Z,80.48
2018-08-10T21:31:44.158Z,80.19
2018-08-10T21:34:12.631Z,79.67
2018-08-10T21:36:41.184Z,79.50
2018-08-10T21:39:11.509Z,79.89
2018-08-10T21:41:40.254Z,80.06
2018-08-10T21:44:09.299Z,80.22
2018-08-10T21:46:37.858Z,80.77
2018-08-10T21:49:06.885Z,80.07
2018-08-10T21:51:35.510Z,80.35
2018-08-10T21:54:04.079Z,80.49
2018-08-10T21:56:32.650Z,80.67
2018-08-10T21:59:01.151Z,80.47
2018-08-10T22:01:29.660Z,80.86
2018-08-10T22:03:58.253Z,80.50
2018-08-10T22:06:26.791Z,80.93
2018-08-10T22:08:55.310Z,81.05
2018-08-10T22:11:23.831Z,80.82
2018-08-10T22:14:59.533Z,81.01
2018-08-10T22:17:33.362Z,81.44
2018-08-10T22:20:01.902Z,81.16
2018-08-10T22:22:31.701Z,81.96
2018-08-10T22:25:00.246Z,81.71
2018-08-10T22:27:28.777Z,81.86
2018-08-10T22:29:57.294Z,81.65
2018-08-10T22:32:25.806Z,81.51
2018-08-10T22:34:54.381Z,82.03
2018-08-10T22:37:22.950Z,81.73
2018-08-10T22:39:51.433Z,82.33
2018-08-10T22:42:19.954Z,82.28
2018-08-10T22:44:48.930Z,82.49
2018-08-10T22:47:17.485Z,83.10
2018-08-10T22:49:46.026Z,82.88
2018-08-10T22:52:14.531Z,83.26
2018-08-10T22:54:43.063Z,82.76
2018-08-10T22:57:11.623Z,82.34
2018-08-10T22:59:40.165Z,82.17
2018-08-10T23:02:08.809Z,82.22
2018-08-10T23:04:37.351Z,81.73
2018-08-10T23:07:05.873Z,82.17
2018-08-10T23:09:34.378Z,82.25
2018-08-10T23:12:02.940Z,82.18
2018-08-10T23:14:32.432Z,82.49
2018-08-10T23:17:00.973Z,82.45
2018-08-10T23:19:29.482Z,83.47
2018-08-10T23:21:57.991Z,84.06
2018-08-10T23:24:26.513Z,84.30
2018-08-10T23:26:55.054Z,84.23
2018-08-10T23:29:23.669Z,84.20
2018-08-10T23:31:52.194Z,84.11
2018-08-10T23:34:20.682Z,84.27
2018-08-10T23:36:49.176Z,83.97
2018-08-10T23:39:17.715Z,83.92
2018-08-10T23:41:46.238Z,83.10
2018-08-10T23:44:14.773Z,83.07
2018-08-10T23:46:43.254Z,83.20
2018-08-10T23:49:11.864Z,83.42
2018-08-10T23:51:40.513Z,82.75
2018-08-10T23:54:09.036Z,82.84
2018-08-10T23:56:37.505Z,83.09
2018-08-10T23:59:06.031Z,82.76
